createdAt,value
2023-03-11T00:01:15.281Z,11.30
2023-03-11T00:03:41.778Z,11.32
2023-03-11T00:06:08.488Z,11.39
2023-03-11T00:08:36.285Z,11.39
2023-03-11T00:11:02.912Z,11.23
2023-03-11T00:13:30.411Z,11.36
2023-03-11T00:15:57.952Z,11.27
2023-03-11T00:18:27.164Z,11.26
2023-03-11T00:20:55.357Z,11.29
2023-03-11T00:23:22.008Z,11.26
2023-03-11T00:25:48.540Z,11.32
2023-03-11T00:28:16.208Z,11.04
2023-03-11T00:30:44.651Z,11.16
2023-03-11T00:33:14.034Z,11.17
2023-03-11T00:35:41.332Z,11.14
2023-03-11T00:38:11.790Z,11.04
2023-03-11T00:40:39.490Z,11.00
2023-03-11T00:43:06.131Z,11.08
2023-03-11T00:45:32.662Z,11.06
2023-03-11T00:47:59.691Z,11.00
2023-03-11T00:50:30.569Z,10.96
2023-03-11T00:52:57.481Z,10.98
2023-03-11T00:55:27.705Z,11.15
2023-03-11T00:57:55.808Z,11.19
2023-03-11T01:00:23.748Z,10.85
2023-03-11T01:02:50.950Z,10.75
2023-03-11T01:05:23.133Z,10.84
2023-03-11T01:07:49.949Z,10.98
2023-03-11T01:10:17.455Z,11.19
2023-03-11T01:12:44.534Z,11.07
2023-03-11T01:15:18.865Z,11.06
2023-03-11T01:17:45.796Z,11.01
2023-03-11T01:20:13.197Z,10.94
2023-03-11T01:22:39.843Z,11.05
2023-03-11T01:25:07.101Z,11.11
2023-03-11T01:27:33.655Z,11.00
2023-03-11T01:30:00.180Z,11.01
2023-03-11T01:32:26.933Z,10.93
2023-03-11T01:34:53.489Z,10.96
2023-03-11T01:37:20.505Z,11.24
2023-03-11T01:39:47.123Z,11.10
2023-03-11T01:42:13.910Z,11.30
2023-03-11T01:44:40.448Z,11.28
2023-03-11T01:47:10.129Z,11.12
2023-03-11T01:49:41.919Z,11.50
2023-03-11T01:52:09.742Z,11.19
2023-03-11T01:54:39.557Z,11.08
2023-03-11T01:57:09.625Z,11.20
2023-03-11T01:59:48.791Z,10.96
2023-03-11T02:02:23.243Z,10.80
2023-03-11T02:04:51.416Z,10.82
2023-03-11T02:07:18.309Z,10.97
2023-03-11T02:09:45.174Z,11.07
2023-03-11T02:12:14.910Z,10.81
2023-03-11T02:14:45.103Z,10.84
2023-03-11T02:17:12.801Z,10.80
2023-03-11T02:20:09.066Z,10.82
2023-03-11T02:22:36.249Z,10.80
2023-03-11T02:25:18.448Z,10.96
2023-03-11T02:27:48.939Z,11.09
2023-03-11T02:30:17.185Z,11.04
2023-03-11T02:32:48.551Z,11.08
2023-03-11T02:35:16.375Z,11.08
2023-03-11T02:37:52.002Z,10.79
2023-03-11T02:40:24.745Z,10.86
2023-03-11T02:42:56.909Z,11.38
2023-03-11T02:45:26.027Z,11.13
2023-03-11T02:47:55.356Z,11.01
2023-03-11T02:50:22.650Z,10.80
2023-03-11T02:52:50.094Z,10.86
2023-03-11T02:55:18.139Z,10.89
2023-03-11T02:57:44.911Z,11.01
2023-03-11T03:00:14.121Z,11.04
2023-03-11T03:02:41.307Z,10.96
2023-03-11T03:05:08.769Z,11.09
2023-03-11T03:07:35.316Z,11.00
2023-03-11T03:10:02.273Z,11.12
2023-03-11T03:12:28.790Z,11.02
2023-03-11T03:14:55.432Z,11.24
2023-03-11T03:17:22.067Z,11.17
2023-03-11T03:19:48.599Z,11.15
2023-03-11T03:22:15.282Z,11.24
2023-03-11T03:24:41.882Z,11.30
2023-03-11T03:27:08.487Z,11.24
2023-03-11T03:29:35.126Z,11.06
2023-03-11T03:32:01.713Z,11.01
2023-03-11T03:34:28.310Z,11.16
2023-03-11T03:36:54.880Z,11.09
2023-03-11T03:39:21.458Z,11.29
2023-03-11T03:41:47.987Z,11.07
2023-03-11T03:44:14.755Z,11.04
2023-03-11T03:46:41.528Z,10.80
2023-03-11T03:49:08.122Z,10.58
2023-03-11T03:51:34.850Z,10.47
2023-03-11T03:54:01.431Z,10.34
2023-03-11T03:56:27.967Z,10.43
2023-03-11T03:58:54.617Z,10.66
2023-03-11T04:01:21.324Z,10.88
2023-03-11T04:03:47.888Z,10.79
2023-03-11T04:06:23.308Z,10.72
2023-03-11T04:08:52.008Z,10.81
2023-03-11T04:11:19.270Z,10.76
2023-03-11T04:13:46.693Z,10.81
2023-03-11T04:16:20.886Z,10.89
2023-03-11T04:18:47.907Z,10.91
2023-03-11T04:21:14.986Z,10.92
2023-03-11T04:23:41.607Z,10.83
2023-03-11T04:26:08.256Z,10.84
2023-03-11T04:28:34.757Z,11.03
2023-03-11T04:31:01.446Z,10.85
2023-03-11T04:33:28.157Z,10.83
2023-03-11T04:35:54.723Z,11.01
2023-03-11T04:38:21.370Z,10.98
2023-03-11T04:40:48.168Z,11.03
2023-03-11T04:43:14.733Z,11.05
2023-03-11T04:45:44.819Z,11.03
2023-03-11T04:48:11.638Z,11.00
2023-03-11T04:50:38.115Z,10.90
2023-03-11T04:53:04.636Z,10.83
2023-03-11T04:55:31.321Z,10.88
2023-03-11T04:57:57.818Z,11.02
2023-03-11T05:00:25.236Z,11.04
2023-03-11T05:02:52.346Z,10.81
2023-03-11T05:05:19.941Z,10.86
2023-03-11T05:07:46.735Z,10.82
2023-03-11T05:10:13.768Z,10.81
2023-03-11T05:12:40.380Z,10.75
2023-03-11T05:15:07.500Z,11.14
2023-03-11T05:17:34.129Z,10.99
2023-03-11T05:20:00.690Z,10.80
2023-03-11T05:22:27.202Z,10.51
2023-03-11T05:24:53.808Z,10.54
2023-03-11T05:27:21.319Z,10.73
2023-03-11T05:29:48.123Z,10.67
2023-03-11T05:32:15.063Z,10.74
2023-03-11T05:34:41.868Z,10.60
2023-03-11T05:37:08.904Z,10.52
2023-03-11T05:39:37.800Z,10.59
2023-03-11T05:42:08.528Z,10.39
2023-03-11T05:44:35.145Z,10.47
2023-03-11T05:47:01.847Z,10.61
2023-03-11T05:49:28.417Z,10.45
2023-03-11T05:51:57.388Z,10.33
2023-03-11T05:54:25.189Z,10.27
2023-03-11T05:56:51.736Z,10.26
2023-03-11T05:59:19.812Z,10.19
2023-03-11T06:01:46.465Z,10.07
2023-03-11T06:04:13.367Z,10.02
2023-03-11T06:06:43.630Z,10.17
2023-03-11T06:09:14.045Z,9.99
2023-03-11T06:11:41.399Z,10.15
2023-03-11T06:14:14.810Z,10.21
2023-03-11T06:16:41.912Z,10.16
2023-03-11T06:19:08.852Z,10.14
2023-03-11T06:21:35.738Z,10.09
2023-03-11T06:24:02.281Z,10.15
2023-03-11T06:26:28.830Z,10.42
2023-03-11T06:28:55.563Z,10.70
2023-03-11T06:31:25.386Z,10.72
2023-03-11T06:33:53.054Z,10.78
2023-03-11T06:36:20.661Z,10.70
2023-03-11T06:38:48.463Z,10.64
2023-03-11T06:41:14.967Z,10.39
2023-03-11T06:43:41.666Z,10.40
2023-03-11T06:46:13.861Z,10.27
2023-03-11T06:48:40.444Z,10.11
2023-03-11T06:51:07.274Z,10.21
2023-03-11T06:53:33.954Z,10.10
2023-03-11T06:56:09.763Z,10.16
2023-03-11T06:58:38.334Z,10.33
2023-03-11T07:01:06.740Z,10.16
2023-03-11T07:03:33.638Z,10.07
2023-03-11T07:06:00.663Z,10.04
2023-03-11T07:08:27.507Z,10.23
2023-03-11T07:11:24.474Z,10.41
2023-03-11T07:13:52.009Z,10.21
2023-03-11T07:16:21.336Z,10.16
2023-03-11T07:18:49.261Z,10.21
2023-03-11T07:21:18.868Z,10.25
2023-03-11T07:23:45.843Z,10.35
2023-03-11T07:26:15.358Z,10.40
2023-03-11T07:28:42.236Z,10.36
2023-03-11T07:31:14.226Z,10.18
2023-03-11T07:33:41.087Z,10.05
2023-03-11T07:36:09.552Z,10.11
2023-03-11T07:38:36.618Z,10.20
2023-03-11T07:41:03.553Z,10.02
2023-03-11T07:43:30.118Z,10.01
2023-03-11T07:46:03.654Z,10.05
2023-03-11T07:48:30.703Z,10.08
2023-03-11T07:51:10.403Z,10.27
2023-03-11T07:53:37.149Z,10.51
2023-03-11T07:56:04.492Z,10.72
2023-03-11T07:58:31.159Z,10.81
2023-03-11T08:01:04.440Z,10.80
2023-03-11T08:03:31.008Z,10.60
2023-03-11T08:05:57.698Z,10.52
2023-03-11T08:08:24.541Z,10.42
2023-03-11T08:10:51.043Z,10.46
2023-03-11T08:13:17.670Z,10.35
2023-03-11T08:15:44.671Z,10.40
2023-03-11T08:18:11.228Z,10.44
2023-03-11T08:20:38.943Z,10.59
2023-03-11T08:23:06.508Z,10.55
2023-03-11T08:25:33.020Z,10.69
2023-03-11T08:27:59.570Z,10.85
2023-03-11T08:30:26.154Z,10.68
2023-03-11T08:32:52.682Z,10.69
2023-03-11T08:35:19.323Z,10.55
2023-03-11T08:37:46.305Z,10.77
2023-03-11T08:40:13.179Z,10.75
2023-03-11T08:42:39.783Z,11.09
2023-03-11T08:45:07.249Z,11.19
2023-03-11T08:47:36.217Z,10.81
2023-03-11T08:50:08.508Z,10.56
2023-03-11T08:52:35.697Z,10.59
2023-03-11T08:55:02.444Z,10.44
2023-03-11T08:57:29.185Z,10.36
2023-03-11T08:59:58.191Z,10.39
2023-03-11T09:02:25.712Z,10.39
2023-03-11T09:04:52.353Z,10.42
2023-03-11T09:07:19.273Z,10.56
2023-03-11T09:09:45.778Z,10.48
2023-03-11T09:12:15.161Z,10.48
2023-03-11T09:14:42.519Z,10.40
2023-03-11T09:17:10.295Z,10.52
2023-03-11T09:19:37.175Z,10.46
2023-03-11T09:22:04.512Z,10.43
2023-03-11T09:24:35.105Z,10.33
2023-03-11T09:27:02.316Z,9.97
2023-03-11T09:29:29.401Z,10.23
2023-03-11T09:31:56.183Z,10.24
2023-03-11T09:34:23.000Z,10.21
2023-03-11T09:36:49.542Z,10.19
2023-03-11T09:39:16.124Z,10.26
2023-03-11T09:42:03.651Z,10.05
2023-03-11T09:44:39.217Z,10.19
2023-03-11T09:47:37.101Z,10.18
2023-03-11T09:50:15.265Z,10.09
2023-03-11T09:53:19.890Z,10.11
2023-03-11T09:55:50.876Z,10.18
2023-03-11T09:58:29.621Z,10.07
2023-03-11T10:00:56.584Z,10.00
2023-03-11T10:03:32.109Z,9.86
2023-03-11T10:06:06.302Z,9.76
2023-03-11T10:08:44.399Z,9.85
2023-03-11T10:11:47.595Z,9.55
2023-03-11T10:14:27.755Z,9.57
2023-03-11T10:17:01.525Z,9.23
2023-03-11T10:19:51.143Z,9.07
2023-03-11T10:23:08.695Z,9.35
2023-03-11T10:26:05.475Z,9.47
2023-03-11T10:29:07.602Z,9.25
2023-03-11T10:32:01.392Z,9.18
2023-03-11T10:35:04.527Z,9.31
2023-03-11T10:37:48.367Z,9.28
2023-03-11T10:40:36.898Z,9.32
2023-03-11T10:43:09.335Z,9.40
2023-03-11T10:45:43.434Z,9.45
2023-03-11T10:48:16.757Z,9.52
2023-03-11T10:50:51.714Z,9.64
2023-03-11T10:53:20.321Z,9.63
2023-03-11T10:55:52.770Z,9.54
2023-03-11T10:58:25.103Z,9.52
2023-03-11T11:01:15.140Z,9.77
2023-03-11T11:03:44.052Z,9.91
2023-03-11T11:06:29.652Z,9.82
2023-03-11T11:09:16.327Z,9.81
2023-03-11T11:11:59.842Z,9.62
2023-03-11T11:14:26.516Z,9.87
2023-03-11T11:16:53.159Z,9.78
2023-03-11T11:19:19.893Z,9.71
2023-03-11T11:21:50.947Z,9.72
2023-03-11T11:24:29.798Z,9.71
2023-03-11T11:27:15.264Z,9.64
2023-03-11T11:29:42.713Z,9.75
2023-03-11T11:32:15.437Z,9.78
2023-03-11T11:34:42.497Z,9.88
2023-03-11T11:37:14.488Z,9.93
2023-03-11T11:39:56.352Z,10.15
2023-03-11T11:42:25.501Z,9.90
2023-03-11T11:45:03.442Z,9.86
2023-03-11T11:47:39.398Z,10.14
2023-03-11T11:50:31.913Z,10.21
2023-03-11T11:53:11.122Z,10.37
2023-03-11T11:55:42.430Z,10.27
2023-03-11T11:58:12.335Z,10.05
2023-03-11T12:01:00.942Z,10.25
2023-03-11T12:03:50.995Z,10.40
2023-03-11T12:06:24.850Z,10.25
2023-03-11T12:09:02.045Z,10.28
2023-03-11T12:11:42.057Z,10.55
2023-03-11T12:14:29.778Z,10.60
2023-03-11T12:17:03.917Z,10.75
2023-03-11T12:19:52.139Z,10.65
2023-03-11T12:22:37.479Z,10.48
2023-03-11T12:25:22.318Z,10.52
2023-03-11T12:28:17.973Z,10.60
2023-03-11T12:30:54.350Z,10.63
2023-03-11T12:33:47.330Z,10.93
2023-03-11T12:36:41.571Z,10.96
2023-03-11T12:39:22.062Z,10.76
2023-03-11T12:41:48.662Z,10.78
2023-03-11T12:44:27.376Z,10.74
2023-03-11T12:46:54.011Z,10.78
2023-03-11T12:49:25.793Z,10.85
2023-03-11T12:52:20.399Z,10.90
2023-03-11T12:54:49.087Z,11.18
2023-03-11T12:57:18.703Z,11.34
2023-03-11T12:59:54.441Z,11.12
2023-03-11T13:02:39.005Z,11.17
2023-03-11T13:05:12.874Z,11.29
2023-03-11T13:07:57.322Z,11.15
2023-03-11T13:10:44.652Z,11.40
2023-03-11T13:13:36.024Z,11.29
2023-03-11T13:16:14.545Z,11.20
2023-03-11T13:18:46.726Z,11.46
2023-03-11T13:21:28.396Z,11.22
2023-03-11T13:24:22.200Z,11.16
2023-03-11T13:27:07.081Z,11.30
2023-03-11T13:29:47.654Z,11.45
2023-03-11T13:32:49.607Z,11.63
2023-03-11T13:35:41.798Z,11.71
2023-03-11T13:38:23.970Z,11.59
2023-03-11T13:40:52.557Z,11.37
2023-03-11T13:43:21.222Z,11.42
2023-03-11T13:45:53.838Z,11.48
2023-03-11T13:48:28.221Z,11.71
2023-03-11T13:51:04.430Z,11.84
2023-03-11T13:53:43.726Z,11.74
2023-03-11T13:56:18.849Z,11.79
2023-03-11T13:58:45.372Z,11.67
2023-03-11T14:01:16.523Z,11.75
2023-03-11T14:03:47.422Z,11.97
2023-03-11T14:06:19.958Z,11.90
2023-03-11T14:08:57.731Z,12.27
2023-03-11T14:11:29.427Z,12.15
2023-03-11T14:13:56.540Z,12.12
2023-03-11T14:16:36.347Z,12.09
2023-03-11T14:19:08.663Z,12.04
2023-03-11T14:21:35.456Z,11.97
2023-03-11T14:24:03.216Z,12.11
2023-03-11T14:26:35.386Z,12.13
2023-03-11T14:29:08.993Z,12.05
2023-03-11T14:31:38.100Z,11.97
2023-03-11T14:34:14.735Z,12.07
2023-03-11T14:36:48.476Z,11.89
2023-03-11T14:39:36.185Z,11.90
2023-03-11T14:42:08.693Z,11.96
2023-03-11T14:44:40.819Z,11.96
2023-03-11T14:47:23.729Z,12.09
2023-03-11T14:49:51.827Z,12.02
2023-03-11T14:52:37.380Z,12.05
2023-03-11T14:55:14.562Z,12.12
2023-03-11T14:57:44.683Z,12.61
2023-03-11T15:00:25.554Z,12.69
2023-03-11T15:03:02.405Z,12.64
2023-03-11T15:05:38.492Z,12.54
2023-03-11T15:08:07.414Z,12.38
2023-03-11T15:10:35.044Z,12.31
2023-03-11T15:13:15.132Z,12.20
2023-03-11T15:15:41.773Z,12.26
2023-03-11T15:18:28.900Z,12.10
2023-03-11T15:21:17.922Z,12.31
2023-03-11T15:24:05.149Z,12.01
2023-03-11T15:26:34.513Z,12.29
2023-03-11T15:29:06.606Z,12.30
2023-03-11T15:31:38.786Z,12.38
2023-03-11T15:34:25.207Z,12.40
2023-03-11T15:36:53.080Z,12.18
2023-03-11T15:39:30.459Z,12.15
2023-03-11T15:42:01.147Z,12.17
2023-03-11T15:44:48.926Z,12.08
2023-03-11T15:47:18.512Z,12.20
2023-03-11T15:49:45.699Z,12.45
2023-03-11T15:52:12.337Z,12.33
2023-03-11T15:54:39.411Z,12.27
2023-03-11T15:57:11.183Z,11.95
2023-03-11T15:59:39.830Z,12.01
2023-03-11T16:02:26.056Z,12.16
2023-03-11T16:04:53.320Z,12.03
2023-03-11T16:07:32.810Z,12.05
2023-03-11T16:10:05.729Z,11.71
2023-03-11T16:12:32.655Z,11.82
2023-03-11T16:14:59.149Z,11.90
2023-03-11T16:17:26.584Z,12.05
2023-03-11T16:19:54.085Z,12.05
2023-03-11T16:22:32.895Z,12.10
2023-03-11T16:24:59.852Z,12.11
2023-03-11T16:27:27.375Z,12.18
2023-03-11T16:29:54.088Z,12.15
2023-03-11T16:32:20.883Z,12.21
2023-03-11T16:34:47.450Z,12.14
2023-03-11T16:37:20.825Z,12.32
2023-03-11T16:39:48.539Z,12.21
2023-03-11T16:42:23.096Z,12.30
2023-03-11T16:44:50.387Z,12.38
2023-03-11T16:47:17.273Z,12.09
2023-03-11T16:49:43.985Z,12.36
2023-03-11T16:52:10.720Z,12.30
2023-03-11T16:54:37.246Z,12.35
2023-03-11T16:57:04.140Z,12.41
2023-03-11T16:59:30.695Z,12.44
2023-03-11T17:01:57.360Z,12.46
2023-03-11T17:04:24.079Z,12.26
2023-03-11T17:06:50.588Z,12.31
2023-03-11T17:09:17.101Z,12.07
2023-03-11T17:11:43.736Z,12.16
2023-03-11T17:14:16.512Z,12.24
2023-03-11T17:16:44.953Z,12.15
2023-03-11T17:19:11.590Z,12.06
2023-03-11T17:21:38.090Z,12.00
2023-03-11T17:24:04.981Z,11.96
2023-03-11T17:26:31.876Z,11.77
2023-03-11T17:28:59.078Z,11.65
2023-03-11T17:31:25.891Z,11.61
2023-03-11T17:33:52.680Z,11.63
2023-03-11T17:36:19.264Z,11.70
2023-03-11T17:38:47.012Z,11.72
2023-03-11T17:41:16.235Z,11.66
2023-03-11T17:43:43.170Z,11.72
2023-03-11T17:46:12.537Z,11.69
2023-03-11T17:48:39.134Z,11.66
2023-03-11T17:51:07.590Z,11.73
2023-03-11T17:53:35.969Z,11.63
2023-03-11T17:56:03.009Z,11.72
2023-03-11T17:58:29.509Z,11.69
2023-03-11T18:00:56.083Z,11.60
2023-03-11T18:03:22.650Z,11.63
2023-03-11T18:06:04.436Z,11.70
2023-03-11T18:08:32.699Z,11.72
2023-03-11T18:11:04.531Z,11.64
2023-03-11T18:13:31.670Z,11.47
2023-03-11T18:16:00.195Z,11.71
2023-03-11T18:18:27.776Z,11.81
2023-03-11T18:20:54.581Z,11.76
2023-03-11T18:23:21.159Z,11.68
2023-03-11T18:25:53.933Z,11.62
2023-03-11T18:28:20.658Z,11.73
2023-03-11T18:30:47.219Z,11.67
2023-03-11T18:33:13.781Z,11.59
2023-03-11T18:35:40.474Z,11.57
2023-03-11T18:38:07.084Z,11.63
2023-03-11T18:40:33.611Z,11.77
2023-03-11T18:43:00.220Z,11.65
2023-03-11T18:45:26.712Z,11.65
2023-03-11T18:47:53.237Z,11.61
2023-03-11T18:50:20.624Z,11.69
2023-03-11T18:52:49.744Z,11.64
2023-03-11T18:55:16.294Z,11.57
2023-03-11T18:57:43.383Z,11.69
2023-03-11T19:00:10.527Z,11.84
2023-03-11T19:02:37.041Z,11.78
2023-03-11T19:05:04.431Z,11.65
2023-03-11T19:07:31.055Z,11.75
2023-03-11T19:09:57.616Z,11.78
2023-03-11T19:12:24.508Z,11.83
2023-03-11T19:14:51.002Z,11.73
2023-03-11T19:17:18.411Z,11.82
2023-03-11T19:19:45.114Z,11.81
2023-03-11T19:22:11.628Z,11.91
2023-03-11T19:24:38.512Z,12.00
2023-03-11T19:27:05.146Z,11.83
2023-03-11T19:29:31.759Z,11.85
2023-03-11T19:31:58.551Z,11.71
2023-03-11T19:34:27.135Z,11.61
2023-03-11T19:36:53.631Z,11.60
2023-03-11T19:39:20.272Z,11.68
2023-03-11T19:41:46.934Z,11.73
2023-03-11T19:44:13.564Z,11.68
2023-03-11T19:46:40.224Z,11.59
2023-03-11T19:49:07.653Z,11.57
2023-03-11T19:51:48.581Z,11.53
2023-03-11T19:54:16.624Z,11.64
2023-03-11T19:56:43.759Z,11.65
2023-03-11T19:59:10.299Z,11.56
2023-03-11T20:01:37.120Z,11.45
2023-03-11T20:04:04.667Z,11.49
2023-03-11T20:06:31.246Z,11.48
2023-03-11T20:08:57.966Z,11.37
2023-03-11T20:11:24.492Z,11.29
2023-03-11T20:13:51.068Z,11.25
2023-03-11T20:16:19.503Z,11.22
2023-03-11T20:18:50.253Z,11.30
2023-03-11T20:21:17.121Z,11.37
2023-03-11T20:23:43.739Z,11.38
2023-03-11T20:26:13.885Z,11.35
2023-03-11T20:28:40.588Z,11.50
2023-03-11T20:31:10.050Z,11.58
2023-03-11T20:33:37.778Z,11.44
2023-03-11T20:36:06.538Z,11.40
2023-03-11T20:38:33.565Z,11.57
2023-03-11T20:41:00.248Z,11.60
2023-03-11T20:43:26.854Z,11.87
2023-03-11T20:45:53.524Z,11.88
2023-03-11T20:48:20.066Z,11.83
2023-03-11T20:50:46.608Z,11.86
2023-03-11T20:53:13.204Z,11.86
2023-03-11T20:55:40.921Z,11.75
2023-03-11T20:58:07.923Z,11.48
2023-03-11T21:00:35.402Z,11.42
2023-03-11T21:03:02.229Z,11.40
2023-03-11T21:05:29.084Z,11.52
2023-03-11T21:07:55.865Z,11.48
2023-03-11T21:10:22.463Z,11.52
2023-03-11T21:12:49.920Z,11.52
2023-03-11T21:15:16.765Z,11.51
2023-03-11T21:17:43.351Z,11.58
2023-03-11T21:20:11.182Z,11.67
2023-03-11T21:22:37.828Z,11.59
2023-03-11T21:25:07.910Z,11.54
2023-03-11T21:27:35.055Z,11.65
2023-03-11T21:30:01.543Z,11.91
2023-03-11T21:32:28.859Z,11.92
2023-03-11T21:34:57.428Z,11.91
2023-03-11T21:37:24.453Z,11.87
2023-03-11T21:39:51.472Z,11.82
2023-03-11T21:42:18.936Z,11.79
2023-03-11T21:44:45.766Z,11.84
2023-03-11T21:47:12.303Z,11.78
2023-03-11T21:49:39.091Z,11.72
2023-03-11T21:52:06.575Z,11.80
2023-03-11T21:54:33.143Z,11.92
2023-03-11T21:56:59.668Z,11.74
2023-03-11T21:59:26.456Z,11.86
2023-03-11T22:01:53.249Z,11.66
2023-03-11T22:04:20.401Z,11.65
2023-03-11T22:06:47.404Z,11.60
2023-03-11T22:09:14.080Z,11.71
2023-03-11T22:11:40.626Z,11.65
2023-03-11T22:14:07.521Z,11.55
2023-03-11T22:16:34.131Z,11.72
2023-03-11T22:19:00.970Z,11.84
2023-03-11T22:21:27.717Z,11.81
2023-03-11T22:23:54.229Z,11.82
2023-03-11T22:26:20.745Z,11.85
2023-03-11T22:28:47.620Z,11.89
2023-03-11T22:31:15.116Z,11.75
2023-03-11T22:33:41.703Z,11.90
2023-03-11T22:36:09.575Z,11.95
2023-03-11T22:38:37.063Z,11.84
2023-03-11T22:41:05.906Z,11.80
2023-03-11T22:43:32.534Z,11.88
2023-03-11T22:46:01.674Z,11.81
2023-03-11T22:48:29.193Z,12.16
2023-03-11T22:50:55.858Z,12.00
2023-03-11T22:53:23.344Z,11.95
2023-03-11T22:55:49.860Z,11.74
2023-03-11T22:58:16.458Z,11.83
2023-03-11T23:00:44.243Z,11.91
2023-03-11T23:03:12.152Z,11.82
2023-03-11T23:05:42.395Z,11.76
2023-03-11T23:08:15.320Z,11.71
2023-03-11T23:10:44.499Z,11.66
2023-03-11T23:13:11.690Z,11.82
2023-03-11T23:15:41.798Z,11.82
2023-03-11T23:18:09.162Z,11.59
2023-03-11T23:20:37.200Z,11.69
2023-03-11T23:23:04.949Z,11.73
2023-03-11T23:25:32.507Z,11.69
2023-03-11T23:28:01.698Z,11.49
2023-03-11T23:30:28.585Z,11.43
2023-03-11T23:32:55.592Z,11.55
2023-03-11T23:35:22.146Z,11.73
2023-03-11T23:37:50.264Z,11.82
2023-03-11T23:40:17.871Z,11.84
2023-03-11T23:42:44.489Z,11.78
2023-03-11T23:45:11.591Z,11.79
2023-03-11T23:47:38.232Z,11.76
2023-03-11T23:50:06.110Z,11.71
2023-03-11T23:52:33.670Z,11.85
2023-03-11T23:55:01.026Z,11.83
2023-03-11T23:57:27.701Z,11.85
2023-03-11T23:59:54.272Z,11.88
